sensor_id;sensor_type;location;lat;lon;timestamp;temperature;humidity
29713;DHT22;16623;53.632;10.016;2024-02-28T00:02:10;4.90;99.90
29713;DHT22;16623;53.632;10.016;2024-02-28T00:07:02;4.90;99.90
29713;DHT22;16623;53.632;10.016;2024-02-28T00:09:28;4.90;99.90
29713;DHT22;16623;53.632;10.016;2024-02-28T00:11:53;4.80;99.90
29713;DHT22;16623;53.632;10.016;2024-02-28T00:14:19;4.70;99.90
29713;DHT22;16623;53.632;10.016;2024-02-28T00:16:45;4.70;99.90
29713;DHT22;16623;53.632;10.016;2024-02-28T00:19:12;4.70;99.90
29713;DHT22;16623;53.632;10.016;2024-02-28T00:21:38;4.70;99.90
29713;DHT22;16623;53.632;10.016;2024-02-28T00:24:05;4.70;99.90
29713;DHT22;16623;53.632;10.016;2024-02-28T00:26:31;4.60;99.90
29713;DHT22;16623;53.632;10.016;2024-02-28T00:28:56;4.70;99.90
29713;DHT22;16623;53.632;10.016;2024-02-28T00:31:22;4.70;99.90
29713;DHT22;16623;53.632;10.016;2024-02-28T00:33:47;4.60;99.90
29713;DHT22;16623;53.632;10.016;2024-02-28T00:36:13;4.60;99.90
29713;DHT22;16623;53.632;10.016;2024-02-28T00:38:40;4.70;99.90
29713;DHT22;16623;53.632;10.016;2024-02-28T00:41:06;4.60;99.90
29713;DHT22;16623;53.632;10.016;2024-02-28T00:43:31;4.70;99.90
29713;DHT22;16623;53.632;10.016;2024-02-28T00:45:57;4.60;99.90
29713;DHT22;16623;53.632;10.016;2024-02-28T00:48:24;4.50;99.90
29713;DHT22;16623;53.632;10.016;2024-02-28T00:50:49;4.60;99.90
29713;DHT22;16623;53.632;10.016;2024-02-28T00:53:15;4.60;99.90
29713;DHT22;16623;53.632;10.016;2024-02-28T00:55:40;4.60;99.90
29713;DHT22;16623;53.632;10.016;2024-02-28T00:58:06;4.60;99.90
29713;DHT22;16623;53.632;10.016;2024-02-28T01:00:31;4.60;99.90
29713;DHT22;16623;53.632;10.016;2024-02-28T01:02:57;4.50;99.90
29713;DHT22;16623;53.632;10.016;2024-02-28T01:05:22;4.50;99.90
29713;DHT22;16623;53.632;10.016;2024-02-28T01:07:48;4.50;99.90
29713;DHT22;16623;53.632;10.016;2024-02-28T01:10:13;6.00;99.90
29713;DHT22;16623;53.632;10.016;2024-02-28T01:12:39;4.60;99.90
29713;DHT22;16623;53.632;10.016;2024-02-28T01:15:05;5.40;99.90
29713;DHT22;16623;53.632;10.016;2024-02-28T01:17:30;4.70;99.90
29713;DHT22;16623;53.632;10.016;2024-02-28T01:19:56;4.60;99.90
29713;DHT22;16623;53.632;10.016;2024-02-28T01:22:22;4.50;99.90
29713;DHT22;16623;53.632;10.016;2024-02-28T01:24:48;4.40;99.90
29713;DHT22;16623;53.632;10.016;2024-02-28T01:27:13;4.30;99.90
29713;DHT22;16623;53.632;10.016;2024-02-28T01:29:39;4.30;99.90
29713;DHT22;16623;53.632;10.016;2024-02-28T01:32:04;4.40;99.90
29713;DHT22;16623;53.632;10.016;2024-02-28T01:34:30;4.30;99.90
29713;DHT22;16623;53.632;10.016;2024-02-28T01:36:55;4.40;99.90
29713;DHT22;16623;53.632;10.016;2024-02-28T01:39:21;4.40;99.90
29713;DHT22;16623;53.632;10.016;2024-02-28T01:41:55;4.40;99.90
29713;DHT22;16623;53.632;10.016;2024-02-28T01:44:22;4.40;99.90
29713;DHT22;16623;53.632;10.016;2024-02-28T01:46:48;4.40;99.90
29713;DHT22;16623;53.632;10.016;2024-02-28T01:49:13;4.30;99.90
29713;DHT22;16623;53.632;10.016;2024-02-28T01:51:41;4.20;99.90
29713;DHT22;16623;53.632;10.016;2024-02-28T01:54:08;4.10;99.90
29713;DHT22;16623;53.632;10.016;2024-02-28T01:56:34;4.10;99.90
29713;DHT22;16623;53.632;10.016;2024-02-28T01:59:01;4.20;99.90
29713;DHT22;16623;53.632;10.016;2024-02-28T02:01:27;4.10;99.90
29713;DHT22;16623;53.632;10.016;2024-02-28T02:03:54;4.10;99.90
29713;DHT22;16623;53.632;10.016;2024-02-28T02:06:20;4.10;99.90
29713;DHT22;16623;53.632;10.016;2024-02-28T02:08:46;4.20;99.90
29713;DHT22;16623;53.632;10.016;2024-02-28T02:11:12;4.20;99.90
29713;DHT22;16623;53.632;10.016;2024-02-28T02:13:52;4.20;99.90
29713;DHT22;16623;53.632;10.016;2024-02-28T02:16:21;4.30;99.90
29713;DHT22;16623;53.632;10.016;2024-02-28T02:18:53;4.20;99.90
29713;DHT22;16623;53.632;10.016;2024-02-28T02:21:23;4.20;99.90
29713;DHT22;16623;53.632;10.016;2024-02-28T02:23:52;4.20;99.90
29713;DHT22;16623;53.632;10.016;2024-02-28T02:26:18;4.10;99.90
29713;DHT22;16623;53.632;10.016;2024-02-28T02:28:43;4.70;99.90
29713;DHT22;16623;53.632;10.016;2024-02-28T02:31:11;4.10;99.90
29713;DHT22;16623;53.632;10.016;2024-02-28T02:33:37;4.00;99.90
29713;DHT22;16623;53.632;10.016;2024-02-28T02:36:03;4.00;99.90
29713;DHT22;16623;53.632;10.016;2024-02-28T02:38:28;4.00;99.90
29713;DHT22;16623;53.632;10.016;2024-02-28T02:40:54;4.00;99.90
29713;DHT22;16623;53.632;10.016;2024-02-28T02:43:19;4.00;99.90
29713;DHT22;16623;53.632;10.016;2024-02-28T02:45:45;4.10;99.90
29713;DHT22;16623;53.632;10.016;2024-02-28T02:48:11;4.10;99.90
29713;DHT22;16623;53.632;10.016;2024-02-28T02:50:36;4.00;99.90
29713;DHT22;16623;53.632;10.016;2024-02-28T02:53:03;4.10;99.90
29713;DHT22;16623;53.632;10.016;2024-02-28T02:55:29;4.10;99.90
29713;DHT22;16623;53.632;10.016;2024-02-28T02:57:54;4.10;99.90
29713;DHT22;16623;53.632;10.016;2024-02-28T03:00:21;4.10;99.90
29713;DHT22;16623;53.632;10.016;2024-02-28T03:02:46;4.00;99.90
29713;DHT22;16623;53.632;10.016;2024-02-28T03:05:12;5.50;99.90
29713;DHT22;16623;53.632;10.016;2024-02-28T03:07:37;4.00;99.90
29713;DHT22;16623;53.632;10.016;2024-02-28T03:10:03;4.00;99.90
29713;DHT22;16623;53.632;10.016;2024-02-28T03:12:29;4.00;99.90
29713;DHT22;16623;53.632;10.016;2024-02-28T03:14:55;4.00;99.90
29713;DHT22;16623;53.632;10.016;2024-02-28T03:17:21;4.10;99.90
29713;DHT22;16623;53.632;10.016;2024-02-28T03:19:46;4.00;99.90
29713;DHT22;16623;53.632;10.016;2024-02-28T03:22:13;4.40;99.90
29713;DHT22;16623;53.632;10.016;2024-02-28T03:24:38;4.00;99.90
29713;DHT22;16623;53.632;10.016;2024-02-28T03:27:04;4.00;99.90
29713;DHT22;16623;53.632;10.016;2024-02-28T03:29:30;3.90;99.90
29713;DHT22;16623;53.632;10.016;2024-02-28T03:31:55;4.00;99.90
29713;DHT22;16623;53.632;10.016;2024-02-28T03:36:47;4.00;99.90
29713;DHT22;16623;53.632;10.016;2024-02-28T03:39:13;4.00;99.90
29713;DHT22;16623;53.632;10.016;2024-02-28T03:41:38;3.90;99.90
29713;DHT22;16623;53.632;10.016;2024-02-28T03:44:04;3.90;99.90
29713;DHT22;16623;53.632;10.016;2024-02-28T03:46:30;4.00;99.90
29713;DHT22;16623;53.632;10.016;2024-02-28T03:48:56;4.00;99.90
29713;DHT22;16623;53.632;10.016;2024-02-28T03:51:21;4.00;99.90
29713;DHT22;16623;53.632;10.016;2024-02-28T03:53:47;4.00;99.90
29713;DHT22;16623;53.632;10.016;2024-02-28T03:56:13;4.10;99.90
29713;DHT22;16623;53.632;10.016;2024-02-28T03:58:40;4.10;99.90
29713;DHT22;16623;53.632;10.016;2024-02-28T04:01:05;4.10;99.90
29713;DHT22;16623;53.632;10.016;2024-02-28T04:03:31;4.00;99.90
29713;DHT22;16623;53.632;10.016;2024-02-28T04:05:57;4.00;99.90
29713;DHT22;16623;53.632;10.016;2024-02-28T04:08:22;4.10;99.90
29713;DHT22;16623;53.632;10.016;2024-02-28T04:10:48;4.10;99.90
29713;DHT22;16623;53.632;10.016;2024-02-28T04:13:15;4.20;99.90
29713;DHT22;16623;53.632;10.016;2024-02-28T04:15:41;4.20;99.90
29713;DHT22;16623;53.632;10.016;2024-02-28T04:18:06;4.20;99.90
29713;DHT22;16623;53.632;10.016;2024-02-28T04:20:32;4.10;99.90
29713;DHT22;16623;53.632;10.016;2024-02-28T04:22:58;4.20;99.90
29713;DHT22;16623;53.632;10.016;2024-02-28T04:25:23;4.10;99.90
29713;DHT22;16623;53.632;10.016;2024-02-28T04:27:49;4.10;99.90
29713;DHT22;16623;53.632;10.016;2024-02-28T04:30:15;4.10;99.90
29713;DHT22;16623;53.632;10.016;2024-02-28T04:32:40;4.20;99.90
29713;DHT22;16623;53.632;10.016;2024-02-28T04:35:06;4.10;99.90
29713;DHT22;16623;53.632;10.016;2024-02-28T04:37:31;4.10;99.90
29713;DHT22;16623;53.632;10.016;2024-02-28T04:42:23;4.20;99.90
29713;DHT22;16623;53.632;10.016;2024-02-28T04:44:49;4.30;99.90
29713;DHT22;16623;53.632;10.016;2024-02-28T04:47:14;4.20;99.90
29713;DHT22;16623;53.632;10.016;2024-02-28T04:49:40;4.30;99.90
29713;DHT22;16623;53.632;10.016;2024-02-28T04:52:05;4.20;99.90
29713;DHT22;16623;53.632;10.016;2024-02-28T04:54:32;4.20;99.90
29713;DHT22;16623;53.632;10.016;2024-02-28T04:56:57;4.10;99.90
29713;DHT22;16623;53.632;10.016;2024-02-28T04:59:23;4.10;99.90
29713;DHT22;16623;53.632;10.016;2024-02-28T05:01:48;4.10;99.90
29713;DHT22;16623;53.632;10.016;2024-02-28T05:04:14;4.10;99.90
29713;DHT22;16623;53.632;10.016;2024-02-28T05:06:40;4.10;99.90
29713;DHT22;16623;53.632;10.016;2024-02-28T05:09:05;4.20;99.90
29713;DHT22;16623;53.632;10.016;2024-02-28T05:11:31;4.10;99.90
29713;DHT22;16623;53.632;10.016;2024-02-28T05:13:56;4.20;99.90
29713;DHT22;16623;53.632;10.016;2024-02-28T05:16:22;4.20;99.90
29713;DHT22;16623;53.632;10.016;2024-02-28T05:18:47;4.20;99.90
29713;DHT22;16623;53.632;10.016;2024-02-28T05:21:13;4.20;99.90
29713;DHT22;16623;53.632;10.016;2024-02-28T05:23:40;4.20;99.90
29713;DHT22;16623;53.632;10.016;2024-02-28T05:26:05;4.20;99.90
29713;DHT22;16623;53.632;10.016;2024-02-28T05:28:32;4.10;99.90
29713;DHT22;16623;53.632;10.016;2024-02-28T05:31:23;4.20;99.90
29713;DHT22;16623;53.632;10.016;2024-02-28T05:33:51;4.30;99.90
29713;DHT22;16623;53.632;10.016;2024-02-28T05:36:17;4.30;99.90
29713;DHT22;16623;53.632;10.016;2024-02-28T05:41:10;4.20;99.90
29713;DHT22;16623;53.632;10.016;2024-02-28T05:43:37;4.30;99.90
29713;DHT22;16623;53.632;10.016;2024-02-28T05:46:03;4.30;99.90
29713;DHT22;16623;53.632;10.016;2024-02-28T05:48:29;4.30;99.90
29713;DHT22;16623;53.632;10.016;2024-02-28T05:53:20;4.30;99.90
29713;DHT22;16623;53.632;10.016;2024-02-28T05:55:46;4.40;99.90
29713;DHT22;16623;53.632;10.016;2024-02-28T05:58:13;4.40;99.90
29713;DHT22;16623;53.632;10.016;2024-02-28T06:00:38;4.40;99.90
29713;DHT22;16623;53.632;10.016;2024-02-28T06:03:04;4.40;99.90
29713;DHT22;16623;53.632;10.016;2024-02-28T06:05:30;4.20;99.90
29713;DHT22;16623;53.632;10.016;2024-02-28T06:07:56;4.30;99.90
29713;DHT22;16623;53.632;10.016;2024-02-28T06:10:21;4.30;99.90
29713;DHT22;16623;53.632;10.016;2024-02-28T06:12:47;4.20;99.90
29713;DHT22;16623;53.632;10.016;2024-02-28T06:15:12;4.30;99.90
29713;DHT22;16623;53.632;10.016;2024-02-28T06:17:38;4.30;99.90
29713;DHT22;16623;53.632;10.016;2024-02-28T06:20:05;4.40;99.90
29713;DHT22;16623;53.632;10.016;2024-02-28T06:22:31;4.30;99.90
29713;DHT22;16623;53.632;10.016;2024-02-28T06:24:57;4.40;99.90
29713;DHT22;16623;53.632;10.016;2024-02-28T06:27:24;4.30;99.90
29713;DHT22;16623;53.632;10.016;2024-02-28T06:29:51;4.30;99.90
29713;DHT22;16623;53.632;10.016;2024-02-28T06:32:17;4.30;99.90
29713;DHT22;16623;53.632;10.016;2024-02-28T06:34:42;4.30;99.90
29713;DHT22;16623;53.632;10.016;2024-02-28T06:37:08;4.30;99.90
29713;DHT22;16623;53.632;10.016;2024-02-28T06:39:35;4.30;99.90
29713;DHT22;16623;53.632;10.016;2024-02-28T06:42:00;4.30;99.90
29713;DHT22;16623;53.632;10.016;2024-02-28T06:44:26;4.20;99.90
29713;DHT22;16623;53.632;10.016;2024-02-28T06:46:51;4.20;99.90
29713;DHT22;16623;53.632;10.016;2024-02-28T06:49:17;4.30;99.90
29713;DHT22;16623;53.632;10.016;2024-02-28T06:51:45;4.20;99.90
29713;DHT22;16623;53.632;10.016;2024-02-28T06:54:11;4.20;99.90
29713;DHT22;16623;53.632;10.016;2024-02-28T06:56:36;4.20;99.90
29713;DHT22;16623;53.632;10.016;2024-02-28T06:59:02;4.10;99.90
29713;DHT22;16623;53.632;10.016;2024-02-28T07:01:29;4.30;99.90
29713;DHT22;16623;53.632;10.016;2024-02-28T07:03:54;4.30;99.90
29713;DHT22;16623;53.632;10.016;2024-02-28T07:06:20;4.40;99.90
29713;DHT22;16623;53.632;10.016;2024-02-28T07:08:46;5.90;99.90
29713;DHT22;16623;53.632;10.016;2024-02-28T07:11:15;4.30;99.90
29713;DHT22;16623;53.632;10.016;2024-02-28T07:13:41;4.40;99.90
29713;DHT22;16623;53.632;10.016;2024-02-28T07:16:07;4.50;99.90
29713;DHT22;16623;53.632;10.016;2024-02-28T07:18:33;4.40;99.90
29713;DHT22;16623;53.632;10.016;2024-02-28T07:20:58;4.40;99.90
29713;DHT22;16623;53.632;10.016;2024-02-28T07:23:24;4.50;99.90
29713;DHT22;16623;53.632;10.016;2024-02-28T07:25:50;4.50;99.90
29713;DHT22;16623;53.632;10.016;2024-02-28T07:28:15;4.60;99.90
29713;DHT22;16623;53.632;10.016;2024-02-28T07:30:41;4.70;99.90
29713;DHT22;16623;53.632;10.016;2024-02-28T07:33:07;4.60;99.90
29713;DHT22;16623;53.632;10.016;2024-02-28T07:35:44;4.80;99.90
29713;DHT22;16623;53.632;10.016;2024-02-28T07:38:10;4.80;99.90
29713;DHT22;16623;53.632;10.016;2024-02-28T07:40:35;4.60;99.90
29713;DHT22;16623;53.632;10.016;2024-02-28T07:43:01;4.70;99.90
29713;DHT22;16623;53.632;10.016;2024-02-28T07:45:26;4.80;99.90
29713;DHT22;16623;53.632;10.016;2024-02-28T07:47:52;4.80;99.90
29713;DHT22;16623;53.632;10.016;2024-02-28T07:50:18;4.90;99.90
29713;DHT22;16623;53.632;10.016;2024-02-28T07:52:43;5.00;99.90
29713;DHT22;16623;53.632;10.016;2024-02-28T07:55:09;5.00;99.90
29713;DHT22;16623;53.632;10.016;2024-02-28T07:57:34;5.00;99.90
29713;DHT22;16623;53.632;10.016;2024-02-28T08:00:00;4.90;99.90
29713;DHT22;16623;53.632;10.016;2024-02-28T08:02:25;4.90;99.90
29713;DHT22;16623;53.632;10.016;2024-02-28T08:04:51;4.90;99.90
29713;DHT22;16623;53.632;10.016;2024-02-28T08:07:16;5.00;99.90
29713;DHT22;16623;53.632;10.016;2024-02-28T08:14:35;5.10;99.90
29713;DHT22;16623;53.632;10.016;2024-02-28T08:17:00;5.10;99.90
29713;DHT22;16623;53.632;10.016;2024-02-28T08:19:26;5.30;99.90
29713;DHT22;16623;53.632;10.016;2024-02-28T08:21:51;5.40;99.90
29713;DHT22;16623;53.632;10.016;2024-02-28T08:24:17;5.50;99.90
29713;DHT22;16623;53.632;10.016;2024-02-28T08:26:43;5.50;99.90
29713;DHT22;16623;53.632;10.016;2024-02-28T08:29:12;5.70;99.90
29713;DHT22;16623;53.632;10.016;2024-02-28T08:31:43;5.90;99.90
29713;DHT22;16623;53.632;10.016;2024-02-28T08:34:08;6.00;99.90
29713;DHT22;16623;53.632;10.016;2024-02-28T08:36:34;6.00;99.90
29713;DHT22;16623;53.632;10.016;2024-02-28T08:39:00;6.00;99.90
29713;DHT22;16623;53.632;10.016;2024-02-28T08:41:26;6.30;99.90
29713;DHT22;16623;53.632;10.016;2024-02-28T08:43:51;6.30;99.90
29713;DHT22;16623;53.632;10.016;2024-02-28T08:46:17;6.20;99.90
29713;DHT22;16623;53.632;10.016;2024-02-28T08:48:42;6.20;99.90
29713;DHT22;16623;53.632;10.016;2024-02-28T08:51:08;6.20;99.90
29713;DHT22;16623;53.632;10.016;2024-02-28T08:53:33;6.30;99.90
29713;DHT22;16623;53.632;10.016;2024-02-28T08:55:59;6.30;99.90
29713;DHT22;16623;53.632;10.016;2024-02-28T08:58:24;6.40;99.90
29713;DHT22;16623;53.632;10.016;2024-02-28T09:03:17;6.50;99.90
29713;DHT22;16623;53.632;10.016;2024-02-28T09:05:42;6.70;99.90
29713;DHT22;16623;53.632;10.016;2024-02-28T09:08:08;7.00;99.90
29713;DHT22;16623;53.632;10.016;2024-02-28T09:10:34;7.00;99.90
29713;DHT22;16623;53.632;10.016;2024-02-28T09:13:00;7.00;99.90
29713;DHT22;16623;53.632;10.016;2024-02-28T09:15:25;7.10;99.90
29713;DHT22;16623;53.632;10.016;2024-02-28T09:17:52;7.50;99.90
29713;DHT22;16623;53.632;10.016;2024-02-28T09:20:17;7.70;99.90
29713;DHT22;16623;53.632;10.016;2024-02-28T09:22:43;7.80;99.90
29713;DHT22;16623;53.632;10.016;2024-02-28T09:25:09;7.90;99.90
29713;DHT22;16623;53.632;10.016;2024-02-28T09:27:35;7.90;99.90
29713;DHT22;16623;53.632;10.016;2024-02-28T09:30:01;8.20;99.90
29713;DHT22;16623;53.632;10.016;2024-02-28T09:32:27;8.10;99.90
29713;DHT22;16623;53.632;10.016;2024-02-28T09:34:53;8.10;99.90
29713;DHT22;16623;53.632;10.016;2024-02-28T09:37:18;8.10;99.90
29713;DHT22;16623;53.632;10.016;2024-02-28T09:39:46;8.20;99.90
29713;DHT22;16623;53.632;10.016;2024-02-28T09:42:12;9.10;99.90
29713;DHT22;16623;53.632;10.016;2024-02-28T09:44:40;8.00;99.90
29713;DHT22;16623;53.632;10.016;2024-02-28T09:47:06;7.70;99.90
29713;DHT22;16623;53.632;10.016;2024-02-28T09:49:31;7.90;99.90
29713;DHT22;16623;53.632;10.016;2024-02-28T09:51:58;8.00;99.90
29713;DHT22;16623;53.632;10.016;2024-02-28T09:54:25;7.90;99.90
29713;DHT22;16623;53.632;10.016;2024-02-28T09:56:51;8.00;99.90
29713;DHT22;16623;53.632;10.016;2024-02-28T09:59:18;7.90;99.90
29713;DHT22;16623;53.632;10.016;2024-02-28T10:01:48;8.10;99.90
29713;DHT22;16623;53.632;10.016;2024-02-28T10:04:15;8.90;99.90
29713;DHT22;16623;53.632;10.016;2024-02-28T10:06:41;8.40;99.90
29713;DHT22;16623;53.632;10.016;2024-02-28T10:09:06;8.70;99.90
29713;DHT22;16623;53.632;10.016;2024-02-28T10:11:33;8.80;99.90
29713;DHT22;16623;53.632;10.016;2024-02-28T10:14:01;8.90;99.90
29713;DHT22;16623;53.632;10.016;2024-02-28T10:16:27;9.00;99.90
29713;DHT22;16623;53.632;10.016;2024-02-28T10:18:53;9.10;99.90
29713;DHT22;16623;53.632;10.016;2024-02-28T10:21:19;10.00;99.90
29713;DHT22;16623;53.632;10.016;2024-02-28T10:23:45;9.10;99.90
29713;DHT22;16623;53.632;10.016;2024-02-28T10:26:14;9.20;99.90
29713;DHT22;16623;53.632;10.016;2024-02-28T10:28:40;9.10;99.90
29713;DHT22;16623;53.632;10.016;2024-02-28T10:31:07;9.30;99.90
29713;DHT22;16623;53.632;10.016;2024-02-28T10:33:33;9.40;99.90
29713;DHT22;16623;53.632;10.016;2024-02-28T10:36:02;9.60;99.90
29713;DHT22;16623;53.632;10.016;2024-02-28T10:38:30;9.70;99.90
29713;DHT22;16623;53.632;10.016;2024-02-28T10:40:56;9.90;99.90
29713;DHT22;16623;53.632;10.016;2024-02-28T10:43:23;9.70;99.90
29713;DHT22;16623;53.632;10.016;2024-02-28T10:45:50;9.80;99.90
29713;DHT22;16623;53.632;10.016;2024-02-28T10:48:16;9.80;99.90
29713;DHT22;16623;53.632;10.016;2024-02-28T10:50:44;9.80;99.90
29713;DHT22;16623;53.632;10.016;2024-02-28T10:53:14;9.80;99.90
29713;DHT22;16623;53.632;10.016;2024-02-28T10:55:41;9.70;99.90
29713;DHT22;16623;53.632;10.016;2024-02-28T10:58:08;9.50;99.90
29713;DHT22;16623;53.632;10.016;2024-02-28T11:00:36;9.40;99.90
29713;DHT22;16623;53.632;10.016;2024-02-28T11:03:04;9.40;99.90
29713;DHT22;16623;53.632;10.016;2024-02-28T11:05:37;9.30;99.90
29713;DHT22;16623;53.632;10.016;2024-02-28T11:08:07;9.40;99.90
29713;DHT22;16623;53.632;10.016;2024-02-28T11:10:33;9.40;99.90
29713;DHT22;16623;53.632;10.016;2024-02-28T11:12:58;9.20;99.90
29713;DHT22;16623;53.632;10.016;2024-02-28T11:15:25;9.30;99.90
29713;DHT22;16623;53.632;10.016;2024-02-28T11:17:54;9.40;99.90
29713;DHT22;16623;53.632;10.016;2024-02-28T11:20:20;9.50;99.90
29713;DHT22;16623;53.632;10.016;2024-02-28T11:22:47;9.60;99.90
29713;DHT22;16623;53.632;10.016;2024-02-28T11:25:13;9.60;99.90
29713;DHT22;16623;53.632;10.016;2024-02-28T11:27:48;9.40;99.90
29713;DHT22;16623;53.632;10.016;2024-02-28T11:30:14;9.40;99.90
29713;DHT22;16623;53.632;10.016;2024-02-28T11:32:40;9.40;99.90
29713;DHT22;16623;53.632;10.016;2024-02-28T11:35:06;9.20;99.90
29713;DHT22;16623;53.632;10.016;2024-02-28T11:37:32;9.10;99.90
29713;DHT22;16623;53.632;10.016;2024-02-28T11:39:58;9.20;99.90
29713;DHT22;16623;53.632;10.016;2024-02-28T11:42:24;9.20;99.90
29713;DHT22;16623;53.632;10.016;2024-02-28T11:44:56;9.20;99.90
29713;DHT22;16623;53.632;10.016;2024-02-28T11:47:23;9.30;99.90
29713;DHT22;16623;53.632;10.016;2024-02-28T11:49:49;9.30;99.90
29713;DHT22;16623;53.632;10.016;2024-02-28T11:52:15;9.40;99.90
29713;DHT22;16623;53.632;10.016;2024-02-28T11:54:40;9.30;99.90
29713;DHT22;16623;53.632;10.016;2024-02-28T11:57:07;9.20;99.90
29713;DHT22;16623;53.632;10.016;2024-02-28T11:59:33;9.40;99.90
29713;DHT22;16623;53.632;10.016;2024-02-28T12:01:59;9.30;99.90
29713;DHT22;16623;53.632;10.016;2024-02-28T12:04:25;9.10;99.90
29713;DHT22;16623;53.632;10.016;2024-02-28T12:06:50;9.00;99.90
29713;DHT22;16623;53.632;10.016;2024-02-28T12:09:17;9.00;99.90
29713;DHT22;16623;53.632;10.016;2024-02-28T12:11:44;8.80;99.90
29713;DHT22;16623;53.632;10.016;2024-02-28T12:14:09;8.70;99.90
29713;DHT22;16623;53.632;10.016;2024-02-28T12:16:41;8.80;99.90
29713;DHT22;16623;53.632;10.016;2024-02-28T12:19:11;8.70;99.90
29713;DHT22;16623;53.632;10.016;2024-02-28T12:21:40;8.80;99.90
29713;DHT22;16623;53.632;10.016;2024-02-28T12:24:09;8.80;99.90
29713;DHT22;16623;53.632;10.016;2024-02-28T12:26:36;8.80;99.90
29713;DHT22;16623;53.632;10.016;2024-02-28T12:29:02;8.80;99.90
29713;DHT22;16623;53.632;10.016;2024-02-28T12:31:28;8.90;99.90
29713;DHT22;16623;53.632;10.016;2024-02-28T12:33:53;8.90;99.90
29713;DHT22;16623;53.632;10.016;2024-02-28T12:36:20;8.80;99.90
29713;DHT22;16623;53.632;10.016;2024-02-28T12:38:46;8.70;99.90
29713;DHT22;16623;53.632;10.016;2024-02-28T12:41:12;8.70;99.90
29713;DHT22;16623;53.632;10.016;2024-02-28T12:43:38;8.50;99.90
29713;DHT22;16623;53.632;10.016;2024-02-28T12:46:05;8.60;99.90
29713;DHT22;16623;53.632;10.016;2024-02-28T12:48:31;10.30;99.90
29713;DHT22;16623;53.632;10.016;2024-02-28T12:50:57;8.70;99.90
29713;DHT22;16623;53.632;10.016;2024-02-28T12:53:22;8.70;99.90
29713;DHT22;16623;53.632;10.016;2024-02-28T12:55:48;8.80;99.90
29713;DHT22;16623;53.632;10.016;2024-02-28T12:58:13;8.80;99.90
29713;DHT22;16623;53.632;10.016;2024-02-28T13:00:39;8.70;99.90
29713;DHT22;16623;53.632;10.016;2024-02-28T13:03:05;8.80;99.90
29713;DHT22;16623;53.632;10.016;2024-02-28T13:05:31;8.70;99.90
29713;DHT22;16623;53.632;10.016;2024-02-28T13:07:57;8.60;99.90
29713;DHT22;16623;53.632;10.016;2024-02-28T13:10:22;8.50;99.90
29713;DHT22;16623;53.632;10.016;2024-02-28T13:12:48;8.70;99.90
29713;DHT22;16623;53.632;10.016;2024-02-28T13:15:14;8.60;99.90
29713;DHT22;16623;53.632;10.016;2024-02-28T13:17:39;8.60;99.90
29713;DHT22;16623;53.632;10.016;2024-02-28T13:20:07;8.60;99.90
29713;DHT22;16623;53.632;10.016;2024-02-28T13:22:33;8.60;99.90
29713;DHT22;16623;53.632;10.016;2024-02-28T13:24:59;8.70;99.90
29713;DHT22;16623;53.632;10.016;2024-02-28T13:27:25;8.60;99.90
29713;DHT22;16623;53.632;10.016;2024-02-28T13:29:51;8.50;99.90
29713;DHT22;16623;53.632;10.016;2024-02-28T13:32:16;8.30;99.90
29713;DHT22;16623;53.632;10.016;2024-02-28T13:34:42;8.40;99.90
29713;DHT22;16623;53.632;10.016;2024-02-28T13:37:10;8.40;99.90
29713;DHT22;16623;53.632;10.016;2024-02-28T13:39:35;8.30;99.90
29713;DHT22;16623;53.632;10.016;2024-02-28T13:42:01;8.30;99.90
29713;DHT22;16623;53.632;10.016;2024-02-28T13:44:28;8.40;99.90
29713;DHT22;16623;53.632;10.016;2024-02-28T13:46:55;8.60;99.90
29713;DHT22;16623;53.632;10.016;2024-02-28T13:49:20;8.40;99.90
29713;DHT22;16623;53.632;10.016;2024-02-28T13:51:46;8.40;99.90
29713;DHT22;16623;53.632;10.016;2024-02-28T13:54:13;8.40;99.90
29713;DHT22;16623;53.632;10.016;2024-02-28T13:56:38;8.40;99.90
29713;DHT22;16623;53.632;10.016;2024-02-28T13:59:04;8.50;99.90
29713;DHT22;16623;53.632;10.016;2024-02-28T14:01:29;8.60;99.90
29713;DHT22;16623;53.632;10.016;2024-02-28T14:03:55;8.70;99.90
29713;DHT22;16623;53.632;10.016;2024-02-28T14:06:20;8.60;99.90
29713;DHT22;16623;53.632;10.016;2024-02-28T14:08:46;8.50;99.90
29713;DHT22;16623;53.632;10.016;2024-02-28T14:11:11;8.50;99.90
29713;DHT22;16623;53.632;10.016;2024-02-28T14:13:37;8.50;99.90
29713;DHT22;16623;53.632;10.016;2024-02-28T14:16:05;8.50;99.90
29713;DHT22;16623;53.632;10.016;2024-02-28T14:18:30;8.50;99.90
29713;DHT22;16623;53.632;10.016;2024-02-28T14:20:56;8.50;99.90
29713;DHT22;16623;53.632;10.016;2024-02-28T14:23:22;8.60;99.90
29713;DHT22;16623;53.632;10.016;2024-02-28T14:25:47;8.60;99.90
29713;DHT22;16623;53.632;10.016;2024-02-28T14:28:13;8.60;99.90
29713;DHT22;16623;53.632;10.016;2024-02-28T14:30:39;8.70;99.90
29713;DHT22;16623;53.632;10.016;2024-02-28T14:33:04;8.70;99.90
29713;DHT22;16623;53.632;10.016;2024-02-28T14:35:30;8.70;99.90
29713;DHT22;16623;53.632;10.016;2024-02-28T14:37:56;10.20;99.90
29713;DHT22;16623;53.632;10.016;2024-02-28T14:40:21;8.60;99.90
29713;DHT22;16623;53.632;10.016;2024-02-28T14:42:47;8.60;99.90
29713;DHT22;16623;53.632;10.016;2024-02-28T14:45:13;8.40;99.90
29713;DHT22;16623;53.632;10.016;2024-02-28T14:47:43;8.50;99.90
29713;DHT22;16623;53.632;10.016;2024-02-28T14:50:10;8.40;99.90
29713;DHT22;16623;53.632;10.016;2024-02-28T14:52:40;8.30;99.90
29713;DHT22;16623;53.632;10.016;2024-02-28T14:55:07;8.30;99.90
29713;DHT22;16623;53.632;10.016;2024-02-28T14:57:33;8.20;99.90
29713;DHT22;16623;53.632;10.016;2024-02-28T14:59:58;8.30;99.90
29713;DHT22;16623;53.632;10.016;2024-02-28T15:02:24;8.30;99.90
29713;DHT22;16623;53.632;10.016;2024-02-28T15:04:50;8.40;99.90
29713;DHT22;16623;53.632;10.016;2024-02-28T15:07:16;8.30;99.90
29713;DHT22;16623;53.632;10.016;2024-02-28T15:09:42;8.30;99.90
29713;DHT22;16623;53.632;10.016;2024-02-28T15:12:08;8.20;99.90
29713;DHT22;16623;53.632;10.016;2024-02-28T15:14:34;8.20;99.90
29713;DHT22;16623;53.632;10.016;2024-02-28T15:17:00;8.10;99.90
29713;DHT22;16623;53.632;10.016;2024-02-28T15:19:27;8.10;99.90
29713;DHT22;16623;53.632;10.016;2024-02-28T15:21:53;8.10;99.90
29713;DHT22;16623;53.632;10.016;2024-02-28T15:24:19;8.20;99.90
29713;DHT22;16623;53.632;10.016;2024-02-28T15:26:45;8.20;99.90
29713;DHT22;16623;53.632;10.016;2024-02-28T15:29:11;8.20;99.90
29713;DHT22;16623;53.632;10.016;2024-02-28T15:31:38;8.20;99.90
29713;DHT22;16623;53.632;10.016;2024-02-28T15:34:04;8.20;99.90
29713;DHT22;16623;53.632;10.016;2024-02-28T15:36:29;8.20;99.90
29713;DHT22;16623;53.632;10.016;2024-02-28T15:38:55;8.10;99.90
29713;DHT22;16623;53.632;10.016;2024-02-28T15:41:20;8.20;99.90
29713;DHT22;16623;53.632;10.016;2024-02-28T15:43:47;8.20;99.90